Shelby — WCV6157 — position and weather

sailwx.info

Track history (hours):
 
Tides and Currents Weather Stations Pressure Air Temp Water Temp Dewpoint Dewpoint Depression Visibility Wind Speed Wind Dir Waves Ship Positions

Shelby

Owner: WEEKS MARINE, INC., CRANFORD, NJ. More information available from US FCC via Universal Licensing System and Coast Guard Vessel Documentation Center.

Last reported at 2016-Sep-26 02:33 UTC. Time now 2016-Sep-27 02:00 UTC.
Position N 40°41' W 074°05'.

Length 22 m; draft 3.1 m.

Type: Tug. MMSI: 366902344.

Date/timePositionNaut miles runAvg speedWind from/ knotsBaromVisibWave heightAir tempDewpointWater temp
2016-Sep-26 02:33N 40°41' W 074°05'0 0.0
2016-Sep-26 01:33N 40°41' W 074°05'0 0.0
2016-Sep-26 00:33N 40°41' W 074°05'0 0.0
2016-Sep-25 21:33N 40°41' W 074°05'0 0.0
2016-Sep-25 17:33N 40°41' W 074°05'0 0.0
2016-Sep-25 16:33N 40°41' W 074°05'0 0.0
2016-Sep-25 15:33N 40°41' W 074°05'0 0.0
2016-Sep-25 14:33N 40°41' W 074°05'0 0.0
2016-Sep-25 12:33N 40°41' W 074°05'0 0.0
2016-Sep-25 11:34N 40°41' W 074°05'0 0.0
2016-Sep-25 10:33N 40°41' W 074°05'0 0.0
2016-Sep-25 09:33N 40°41' W 074°05'0 0.0
2016-Sep-25 07:33N 40°41' W 074°05'0 0.0
2016-Sep-25 04:33N 40°41' W 074°05'0 0.0
2016-Sep-25 00:34N 40°41' W 074°05'0 0.0
2016-Sep-24 22:33N 40°41' W 074°05'0 0.0
2016-Sep-24 21:33N 40°41' W 074°05'0 0.0
2016-Sep-24 19:33N 40°41' W 074°05'0 0.0
2016-Sep-24 18:33N 40°41' W 074°05'0 0.0
2016-Sep-24 17:33N 40°41' W 074°05'0 0.0
2016-Sep-24 16:33N 40°41' W 074°05'0 0.0
2016-Sep-24 14:33N 40°41' W 074°05'0 0.0
2016-Sep-24 12:33N 40°41' W 074°05'0 0.0
2016-Sep-24 10:33N 40°41' W 074°05'0 0.0
2016-Sep-24 09:33N 40°41' W 074°05'0 0.0
2016-Sep-24 03:33N 40°41' W 074°05'0 0.0
2016-Sep-24 02:33N 40°41' W 074°05'0 0.0
2016-Sep-24 01:33N 40°41' W 074°05'0 0.0
2016-Sep-24 00:33N 40°41' W 074°05'0 0.0
2016-Sep-23 19:33N 40°41' W 074°05'  
2016-Sep-19 16:33N 40°41' W 074°05'0 0.0
2016-Sep-19 14:33N 40°41' W 074°05'0 0.0
2016-Sep-19 13:33N 40°41' W 074°05'0 0.0
2016-Sep-19 12:33N 40°41' W 074°05'0 0.0
2016-Sep-19 11:33N 40°41' W 074°05'0 0.0
2016-Sep-19 09:33N 40°41' W 074°05'0 0.0
2016-Sep-19 07:33N 40°41' W 074°05'0 0.0
2016-Sep-19 06:33N 40°41' W 074°05'0 0.0
2016-Sep-19 03:33N 40°41' W 074°05'0 0.0
2016-Sep-19 02:33N 40°41' W 074°05'0 0.0
2016-Sep-19 00:33N 40°41' W 074°05'0 0.0
2016-Sep-18 19:33N 40°41' W 074°05'0 0.0
2016-Sep-18 15:34N 40°41' W 074°05'0 0.2
2016-Sep-18 14:33N 40°40' W 074°04'1 0.2
2016-Sep-18 10:33N 40°40' W 074°04'1 0.6
2016-Sep-18 09:33N 40°41' W 074°04'0 0.0
2016-Sep-18 02:33N 40°41' W 074°04'0 0.0
2016-Sep-18 01:33N 40°41' W 074°04'0 0.0
2016-Sep-18 00:33N 40°41' W 074°04'0 0.0
2016-Sep-17 22:33N 40°41' W 074°04'0 0.2
2016-Sep-17 21:33N 40°41' W 074°05'0 0.0
2016-Sep-17 20:33N 40°41' W 074°05'0 0.0
2016-Sep-17 19:16N 40°41' W 074°05'0 0.0
2016-Sep-17 13:33N 40°41' W 074°04'0 0.1
2016-Sep-17 12:33N 40°41' W 074°05'0 0.0
2016-Sep-17 10:33N 40°41' W 074°05'0 0.0
2016-Sep-17 09:33N 40°41' W 074°05'0 0.0
2016-Sep-17 08:33N 40°41' W 074°05'0 0.0
2016-Sep-17 07:33N 40°41' W 074°05'0 0.0
2016-Sep-17 05:33N 40°41' W 074°05'0 0.0
2016-Sep-17 04:33N 40°41' W 074°05'0 0.0
2016-Sep-17 00:33N 40°41' W 074°05'50 5.6
2016-Sep-16 15:33N 39°51' W 074°03'19 6.5
2016-Sep-16 12:33N 39°32' W 074°12'  
Track history (hours):
 
Tides and Currents Weather Stations Pressure Air Temp Water Temp Dewpoint Dewpoint Depression Visibility Wind Speed Wind Dir Waves Ship Positions

Shelby

Owner: WEEKS MARINE, INC., CRANFORD, NJ. More information available from US FCC via Universal Licensing System and Coast Guard Vessel Documentation Center.

Last reported at 2016-Sep-26 02:33 UTC. Time now 2016-Sep-27 02:00 UTC.
Position N 40°41' W 074°05'.

Length 22 m; draft 3.1 m.

Type: Tug. MMSI: 366902344.

Date/timePositionNaut miles runAvg speedWind from/ knotsBaromVisibWave heightAir tempDewpointWater temp
2016-Sep-26 02:33N 40°41' W 074°05'0 0.0
2016-Sep-26 01:33N 40°41' W 074°05'0 0.0
2016-Sep-26 00:33N 40°41' W 074°05'0 0.0
2016-Sep-25 21:33N 40°41' W 074°05'0 0.0
2016-Sep-25 17:33N 40°41' W 074°05'0 0.0
2016-Sep-25 16:33N 40°41' W 074°05'0 0.0
2016-Sep-25 15:33N 40°41' W 074°05'0 0.0
2016-Sep-25 14:33N 40°41' W 074°05'0 0.0
2016-Sep-25 12:33N 40°41' W 074°05'0 0.0
2016-Sep-25 11:34N 40°41' W 074°05'0 0.0
2016-Sep-25 10:33N 40°41' W 074°05'0 0.0
2016-Sep-25 09:33N 40°41' W 074°05'0 0.0
2016-Sep-25 07:33N 40°41' W 074°05'0 0.0
2016-Sep-25 04:33N 40°41' W 074°05'0 0.0
2016-Sep-25 00:34N 40°41' W 074°05'0 0.0
2016-Sep-24 22:33N 40°41' W 074°05'0 0.0
2016-Sep-24 21:33N 40°41' W 074°05'0 0.0
2016-Sep-24 19:33N 40°41' W 074°05'0 0.0
2016-Sep-24 18:33N 40°41' W 074°05'0 0.0
2016-Sep-24 17:33N 40°41' W 074°05'0 0.0
2016-Sep-24 16:33N 40°41' W 074°05'0 0.0
2016-Sep-24 14:33N 40°41' W 074°05'0 0.0
2016-Sep-24 12:33N 40°41' W 074°05'0 0.0
2016-Sep-24 10:33N 40°41' W 074°05'0 0.0
2016-Sep-24 09:33N 40°41' W 074°05'0 0.0
2016-Sep-24 03:33N 40°41' W 074°05'0 0.0
2016-Sep-24 02:33N 40°41' W 074°05'0 0.0
2016-Sep-24 01:33N 40°41' W 074°05'0 0.0
2016-Sep-24 00:33N 40°41' W 074°05'0 0.0
2016-Sep-23 19:33N 40°41' W 074°05'  
2016-Sep-19 16:33N 40°41' W 074°05'0 0.0
2016-Sep-19 14:33N 40°41' W 074°05'0 0.0
2016-Sep-19 13:33N 40°41' W 074°05'0 0.0
2016-Sep-19 12:33N 40°41' W 074°05'0 0.0
2016-Sep-19 11:33N 40°41' W 074°05'0 0.0
2016-Sep-19 09:33N 40°41' W 074°05'0 0.0
2016-Sep-19 07:33N 40°41' W 074°05'0 0.0
2016-Sep-19 06:33N 40°41' W 074°05'0 0.0
2016-Sep-19 03:33N 40°41' W 074°05'0 0.0
2016-Sep-19 02:33N 40°41' W 074°05'0 0.0
2016-Sep-19 00:33N 40°41' W 074°05'0 0.0
2016-Sep-18 19:33N 40°41' W 074°05'0 0.0
2016-Sep-18 15:34N 40°41' W 074°05'0 0.2
2016-Sep-18 14:33N 40°40' W 074°04'1 0.2
2016-Sep-18 10:33N 40°40' W 074°04'1 0.6
2016-Sep-18 09:33N 40°41' W 074°04'0 0.0
2016-Sep-18 02:33N 40°41' W 074°04'0 0.0
2016-Sep-18 01:33N 40°41' W 074°04'0 0.0
2016-Sep-18 00:33N 40°41' W 074°04'0 0.0
2016-Sep-17 22:33N 40°41' W 074°04'0 0.2
2016-Sep-17 21:33N 40°41' W 074°05'0 0.0
2016-Sep-17 20:33N 40°41' W 074°05'0 0.0
2016-Sep-17 19:16N 40°41' W 074°05'0 0.0
2016-Sep-17 13:33N 40°41' W 074°04'0 0.1
2016-Sep-17 12:33N 40°41' W 074°05'0 0.0
2016-Sep-17 10:33N 40°41' W 074°05'0 0.0
2016-Sep-17 09:33N 40°41' W 074°05'0 0.0
2016-Sep-17 08:33N 40°41' W 074°05'0 0.0
2016-Sep-17 07:33N 40°41' W 074°05'0 0.0
2016-Sep-17 05:33N 40°41' W 074°05'0 0.0
2016-Sep-17 04:33N 40°41' W 074°05'0 0.0
2016-Sep-17 00:33N 40°41' W 074°05'50 5.6
2016-Sep-16 15:33N 39°51' W 074°03'19 6.5
2016-Sep-16 12:33N 39°32' W 074°12'  

Dump ship's entire track history